sensor_id;sensor_type;location;lat;lon;timestamp;pressure;altitude;pressure_sealevel;temperature;humidity
75039;BME280;63609;49.992;14.512;2023-04-02T00:11:47;97046.44;;;6.43;72.42
75039;BME280;63609;49.992;14.512;2023-04-02T00:14:30;97043.31;;;6.47;72.43
75039;BME280;63609;49.992;14.512;2023-04-02T00:17:02;97046.47;;;6.15;73.82
75039;BME280;63609;49.992;14.512;2023-04-02T00:19:35;97049.75;;;6.45;72.40
75039;BME280;63609;49.992;14.512;2023-04-02T00:22:06;97050.91;;;6.42;72.39
75039;BME280;63609;49.992;14.512;2023-04-02T00:24:38;97050.47;;;6.64;71.73
75039;BME280;63609;49.992;14.512;2023-04-02T00:27:09;97059.91;;;6.49;71.92
75039;BME280;63609;49.992;14.512;2023-04-02T00:29:48;97051.44;;;6.63;72.35
75039;BME280;63609;49.992;14.512;2023-04-02T00:32:20;97054.69;;;6.75;71.53
75039;BME280;63609;49.992;14.512;2023-04-02T00:34:48;97058.69;;;6.44;72.98
75039;BME280;63609;49.992;14.512;2023-04-02T00:37:21;97058.53;;;6.27;73.83
75039;BME280;63609;49.992;14.512;2023-04-02T00:40:00;97061.03;;;6.29;73.91
75039;BME280;63609;49.992;14.512;2023-04-02T00:42:31;97065.22;;;6.49;73.21
75039;BME280;63609;49.992;14.512;2023-04-02T00:45:03;97065.91;;;6.51;72.66
75039;BME280;63609;49.992;14.512;2023-04-02T00:47:35;97051.31;;;6.20;73.46
75039;BME280;63609;49.992;14.512;2023-04-02T00:52:45;97069.84;;;6.47;74.30
75039;BME280;63609;49.992;14.512;2023-04-02T00:55:16;97068.16;;;6.46;73.36
75039;BME280;63609;49.992;14.512;2023-04-02T00:57:51;97066.16;;;6.58;72.78
75039;BME280;63609;49.992;14.512;2023-04-02T01:00:30;97067.63;;;6.43;73.83
75039;BME280;63609;49.992;14.512;2023-04-02T01:05:46;97073.34;;;6.83;72.27
75039;BME280;63609;49.992;14.512;2023-04-02T01:11:23;97077.81;;;6.83;72.06
75039;BME280;63609;49.992;14.512;2023-04-02T01:24:57;97083.88;;;6.93;71.80
75039;BME280;63609;49.992;14.512;2023-04-02T01:27:48;97086.84;;;6.72;72.67
75039;BME280;63609;49.992;14.512;2023-04-02T01:30:18;97086.84;;;6.90;71.99
75039;BME280;63609;49.992;14.512;2023-04-02T01:32:49;97093.84;;;7.17;70.87
75039;BME280;63609;49.992;14.512;2023-04-02T01:35:16;97085.06;;;7.34;70.60
75039;BME280;63609;49.992;14.512;2023-04-02T01:37:53;97092.00;;;7.53;69.54
75039;BME280;63609;49.992;14.512;2023-04-02T01:43:31;97091.31;;;7.51;69.55
75039;BME280;63609;49.992;14.512;2023-04-02T01:46:10;97098.22;;;7.61;69.33
75039;BME280;63609;49.992;14.512;2023-04-02T01:48:55;97106.13;;;7.53;69.83
75039;BME280;63609;49.992;14.512;2023-04-02T01:51:32;97092.03;;;7.35;70.34
75039;BME280;63609;49.992;14.512;2023-04-02T01:54:10;97102.66;;;7.17;70.88
75039;BME280;63609;49.992;14.512;2023-04-02T01:56:40;97108.25;;;7.14;71.63
75039;BME280;63609;49.992;14.512;2023-04-02T01:59:09;97106.22;;;7.44;70.47
75039;BME280;63609;49.992;14.512;2023-04-02T02:01:46;97103.13;;;7.13;71.01
75039;BME280;63609;49.992;14.512;2023-04-02T02:04:21;97103.13;;;7.13;71.26
75039;BME280;63609;49.992;14.512;2023-04-02T02:06:49;97109.97;;;7.33;70.79
75039;BME280;63609;49.992;14.512;2023-04-02T02:09:29;97112.56;;;7.77;68.81
75039;BME280;63609;49.992;14.512;2023-04-02T02:11:59;97106.00;;;7.89;68.38
75039;BME280;63609;49.992;14.512;2023-04-02T02:14:29;97113.22;;;8.05;67.91
75039;BME280;63609;49.992;14.512;2023-04-02T02:16:59;97121.13;;;8.22;66.83
75039;BME280;63609;49.992;14.512;2023-04-02T02:19:34;97118.91;;;8.18;67.47
75039;BME280;63609;49.992;14.512;2023-04-02T02:24:52;97127.13;;;7.64;68.98
75039;BME280;63609;49.992;14.512;2023-04-02T02:32:31;97129.88;;;7.55;69.41
75039;BME280;63609;49.992;14.512;2023-04-02T02:35:17;97131.16;;;7.77;68.69
75039;BME280;63609;49.992;14.512;2023-04-02T02:37:52;97131.09;;;8.20;67.14
75039;BME280;63609;49.992;14.512;2023-04-02T02:40:26;97134.88;;;8.18;66.90
75039;BME280;63609;49.992;14.512;2023-04-02T02:43:00;97133.94;;;8.27;66.33
75039;BME280;63609;49.992;14.512;2023-04-02T02:45:34;97136.59;;;7.67;68.88
75039;BME280;63609;49.992;14.512;2023-04-02T02:48:10;97143.25;;;7.71;69.16
75039;BME280;63609;49.992;14.512;2023-04-02T02:50:41;97139.03;;;7.60;69.43
75039;BME280;63609;49.992;14.512;2023-04-02T02:53:19;97138.22;;;7.42;70.28
75039;BME280;63609;49.992;14.512;2023-04-02T02:55:51;97145.56;;;7.48;70.21
75039;BME280;63609;49.992;14.512;2023-04-02T02:58:26;97149.59;;;7.52;70.26
75039;BME280;63609;49.992;14.512;2023-04-02T03:01:15;97151.59;;;8.02;68.15
75039;BME280;63609;49.992;14.512;2023-04-02T03:03:46;97153.59;;;8.08;67.76
75039;BME280;63609;49.992;14.512;2023-04-02T03:06:16;97154.22;;;7.94;68.57
75039;BME280;63609;49.992;14.512;2023-04-02T03:09:41;97156.94;;;8.10;68.08
75039;BME280;63609;49.992;14.512;2023-04-02T03:11:51;97151.06;;;7.73;68.96
75039;BME280;63609;49.992;14.512;2023-04-02T03:17:40;97163.06;;;7.33;70.73
75039;BME280;63609;49.992;14.512;2023-04-02T03:23:22;97163.16;;;7.49;70.25
75039;BME280;63609;49.992;14.512;2023-04-02T03:26:00;97164.00;;;7.14;71.43
75039;BME280;63609;49.992;14.512;2023-04-02T03:28:31;97175.91;;;7.63;69.61
75039;BME280;63609;49.992;14.512;2023-04-02T03:31:07;97168.56;;;7.22;70.85
75039;BME280;63609;49.992;14.512;2023-04-02T03:33:40;97179.28;;;7.30;70.55
75039;BME280;63609;49.992;14.512;2023-04-02T03:36:23;97176.19;;;7.34;70.81
75039;BME280;63609;49.992;14.512;2023-04-02T03:39:07;97188.84;;;7.84;69.00
75039;BME280;63609;49.992;14.512;2023-04-02T03:41:42;97192.19;;;7.86;68.50
75039;BME280;63609;49.992;14.512;2023-04-02T03:50:02;97200.78;;;8.06;67.86
75039;BME280;63609;49.992;14.512;2023-04-02T03:52:35;97203.41;;;7.54;69.47
75039;BME280;63609;49.992;14.512;2023-04-02T03:55:16;97209.53;;;7.73;68.72
75039;BME280;63609;49.992;14.512;2023-04-02T03:58:06;97216.09;;;8.12;67.84
75039;BME280;63609;49.992;14.512;2023-04-02T04:03:39;97209.94;;;8.12;67.51
75039;BME280;63609;49.992;14.512;2023-04-02T04:06:14;97221.53;;;8.03;67.64
75039;BME280;63609;49.992;14.512;2023-04-02T04:08:50;97230.34;;;8.03;67.92
75039;BME280;63609;49.992;14.512;2023-04-02T04:11:35;97229.81;;;7.56;68.58
75039;BME280;63609;49.992;14.512;2023-04-02T04:16:48;97248.53;;;7.37;69.27
75039;BME280;63609;49.992;14.512;2023-04-02T04:19:27;97255.28;;;7.49;68.31
75039;BME280;63609;49.992;14.512;2023-04-02T04:24:37;97250.81;;;7.49;68.36
75039;BME280;63609;49.992;14.512;2023-04-02T04:27:35;97254.47;;;7.30;69.03
75039;BME280;63609;49.992;14.512;2023-04-02T04:30:20;97263.16;;;7.23;69.52
75039;BME280;63609;49.992;14.512;2023-04-02T04:33:00;97266.91;;;7.20;68.89
75039;BME280;63609;49.992;14.512;2023-04-02T04:35:32;97271.75;;;7.34;68.74
75039;BME280;63609;49.992;14.512;2023-04-02T04:38:12;97278.75;;;6.81;70.39
75039;BME280;63609;49.992;14.512;2023-04-02T04:40:47;97283.13;;;6.99;70.15
75039;BME280;63609;49.992;14.512;2023-04-02T04:43:36;97286.22;;;7.22;69.27
75039;BME280;63609;49.992;14.512;2023-04-02T04:46:21;97309.56;;;6.54;71.00
75039;BME280;63609;49.992;14.512;2023-04-02T04:54:36;97319.69;;;6.31;70.41
75039;BME280;63609;49.992;14.512;2023-04-02T04:57:29;97320.56;;;6.03;70.50
75039;BME280;63609;49.992;14.512;2023-04-02T05:00:26;97324.44;;;5.89;70.74
75039;BME280;63609;49.992;14.512;2023-04-02T05:03:07;97327.69;;;5.73;70.97
75039;BME280;63609;49.992;14.512;2023-04-02T05:05:40;97339.38;;;5.90;69.97
75039;BME280;63609;49.992;14.512;2023-04-02T05:08:13;97342.53;;;5.55;71.45
75039;BME280;63609;49.992;14.512;2023-04-02T05:10:57;97346.38;;;5.91;70.21
75039;BME280;63609;49.992;14.512;2023-04-02T05:18:55;97352.31;;;6.22;68.96
75039;BME280;63609;49.992;14.512;2023-04-02T05:24:35;97376.94;;;5.55;70.96
75039;BME280;63609;49.992;14.512;2023-04-02T05:29:56;97387.44;;;5.66;70.43
75039;BME280;63609;49.992;14.512;2023-04-02T05:32:30;97388.97;;;5.59;70.55
75039;BME280;63609;49.992;14.512;2023-04-02T05:35:02;97400.63;;;5.57;70.37
75039;BME280;63609;49.992;14.512;2023-04-02T05:37:38;97403.56;;;5.54;69.81
75039;BME280;63609;49.992;14.512;2023-04-02T05:40:22;97409.91;;;5.82;68.93
75039;BME280;63609;49.992;14.512;2023-04-02T05:42:54;97412.69;;;5.70;69.01
75039;BME280;63609;49.992;14.512;2023-04-02T05:45:36;97418.44;;;5.35;69.73
75039;BME280;63609;49.992;14.512;2023-04-02T05:48:19;97420.66;;;5.30;69.93
75039;BME280;63609;49.992;14.512;2023-04-02T05:50:50;97426.16;;;4.87;71.04
75039;BME280;63609;49.992;14.512;2023-04-02T05:53:36;97432.97;;;4.90;70.79
75039;BME280;63609;49.992;14.512;2023-04-02T05:58:53;97438.69;;;5.56;68.47
75039;BME280;63609;49.992;14.512;2023-04-02T06:01:40;97445.75;;;5.36;68.82
75039;BME280;63609;49.992;14.512;2023-04-02T06:07:14;97460.47;;;4.98;69.97
75039;BME280;63609;49.992;14.512;2023-04-02T06:09:55;97465.06;;;4.75;70.16
75039;BME280;63609;49.992;14.512;2023-04-02T06:12:55;97478.72;;;4.60;70.29
75039;BME280;63609;49.992;14.512;2023-04-02T06:15:35;97467.25;;;4.49;70.42
75039;BME280;63609;49.992;14.512;2023-04-02T06:21:16;97495.50;;;4.17;71.19
75039;BME280;63609;49.992;14.512;2023-04-02T06:23:57;97494.34;;;4.63;70.54
75039;BME280;63609;49.992;14.512;2023-04-02T06:26:35;97494.25;;;4.53;70.32
75039;BME280;63609;49.992;14.512;2023-04-02T06:31:49;97514.25;;;4.46;70.14
75039;BME280;63609;49.992;14.512;2023-04-02T06:34:21;97518.44;;;4.16;70.38
75039;BME280;63609;49.992;14.512;2023-04-02T06:37:01;97521.41;;;4.23;69.78
75039;BME280;63609;49.992;14.512;2023-04-02T06:39:32;97536.50;;;4.00;70.15
75039;BME280;63609;49.992;14.512;2023-04-02T06:42:19;97541.41;;;3.93;70.18
75039;BME280;63609;49.992;14.512;2023-04-02T06:44:58;97542.03;;;3.64;70.37
75039;BME280;63609;49.992;14.512;2023-04-02T06:48:13;97552.84;;;4.37;68.68
75039;BME280;63609;49.992;14.512;2023-04-02T06:53:36;97574.19;;;3.91;69.19
75039;BME280;63609;49.992;14.512;2023-04-02T06:59:01;97586.53;;;4.13;69.25
75039;BME280;63609;49.992;14.512;2023-04-02T07:01:34;97585.56;;;3.91;70.06
75039;BME280;63609;49.992;14.512;2023-04-02T07:04:03;97594.47;;;3.68;70.20
75039;BME280;63609;49.992;14.512;2023-04-02T07:06:41;97603.59;;;4.09;69.48
75039;BME280;63609;49.992;14.512;2023-04-02T07:09:11;97611.59;;;4.18;69.07
75039;BME280;63609;49.992;14.512;2023-04-02T07:11:44;97605.25;;;3.76;69.66
75039;BME280;63609;49.992;14.512;2023-04-02T07:14:18;97613.88;;;3.45;70.69
75039;BME280;63609;49.992;14.512;2023-04-02T07:16:47;97622.66;;;3.68;70.12
75039;BME280;63609;49.992;14.512;2023-04-02T07:19:23;97635.06;;;4.01;68.95
75039;BME280;63609;49.992;14.512;2023-04-02T07:21:54;97632.69;;;3.51;70.32
75039;BME280;63609;49.992;14.512;2023-04-02T07:24:23;97636.22;;;3.74;69.59
75039;BME280;63609;49.992;14.512;2023-04-02T07:26:51;97652.66;;;3.78;68.99
75039;BME280;63609;49.992;14.512;2023-04-02T07:29:19;97658.06;;;3.65;69.49
75039;BME280;63609;49.992;14.512;2023-04-02T07:31:47;97660.91;;;3.62;69.41
75039;BME280;63609;49.992;14.512;2023-04-02T07:34:19;97657.41;;;3.61;68.54
75039;BME280;63609;49.992;14.512;2023-04-02T07:36:47;97675.41;;;3.56;69.05
75039;BME280;63609;49.992;14.512;2023-04-02T07:39:17;97667.78;;;3.76;68.37
75039;BME280;63609;49.992;14.512;2023-04-02T07:41:56;97685.28;;;3.66;69.10
75039;BME280;63609;49.992;14.512;2023-04-02T07:44:23;97683.38;;;3.79;68.64
75039;BME280;63609;49.992;14.512;2023-04-02T07:46:51;97690.44;;;3.78;69.11
75039;BME280;63609;49.992;14.512;2023-04-02T07:49:18;97695.25;;;3.73;68.64
75039;BME280;63609;49.992;14.512;2023-04-02T07:51:45;97697.41;;;3.68;69.21
75039;BME280;63609;49.992;14.512;2023-04-02T07:54:13;97705.72;;;3.40;68.30
75039;BME280;63609;49.992;14.512;2023-04-02T07:56:40;97711.81;;;3.75;68.24
75039;BME280;63609;49.992;14.512;2023-04-02T07:59:08;97713.56;;;4.21;67.47
75039;BME280;63609;49.992;14.512;2023-04-02T08:01:37;97723.28;;;4.20;68.13
75039;BME280;63609;49.992;14.512;2023-04-02T08:04:05;97715.69;;;3.47;69.19
75039;BME280;63609;49.992;14.512;2023-04-02T08:06:40;97723.69;;;3.81;67.50
75039;BME280;63609;49.992;14.512;2023-04-02T08:09:28;97734.66;;;3.87;67.79
75039;BME280;63609;49.992;14.512;2023-04-02T08:12:06;97733.31;;;3.36;67.76
75039;BME280;63609;49.992;14.512;2023-04-02T08:14:33;97742.69;;;3.51;66.82
75039;BME280;63609;49.992;14.512;2023-04-02T08:17:00;97747.78;;;3.30;66.66
75039;BME280;63609;49.992;14.512;2023-04-02T08:19:27;97747.53;;;2.98;67.64
75039;BME280;63609;49.992;14.512;2023-04-02T08:21:56;97757.28;;;3.33;67.00
75039;BME280;63609;49.992;14.512;2023-04-02T08:24:23;97759.19;;;3.30;66.40
75039;BME280;63609;49.992;14.512;2023-04-02T08:26:55;97760.34;;;3.50;65.85
75039;BME280;63609;49.992;14.512;2023-04-02T08:29:23;97771.75;;;3.86;66.10
75039;BME280;63609;49.992;14.512;2023-04-02T08:31:51;97773.50;;;4.32;65.39
75039;BME280;63609;49.992;14.512;2023-04-02T08:34:19;97774.31;;;4.21;65.52
75039;BME280;63609;49.992;14.512;2023-04-02T08:36:46;97775.78;;;4.14;64.94
75039;BME280;63609;49.992;14.512;2023-04-02T08:39:17;97785.66;;;4.34;65.39
75039;BME280;63609;49.992;14.512;2023-04-02T08:42:36;97794.97;;;4.16;64.32
75039;BME280;63609;49.992;14.512;2023-04-02T08:47:55;97805.47;;;4.29;64.32
75039;BME280;63609;49.992;14.512;2023-04-02T08:50:35;97815.28;;;4.27;64.10
75039;BME280;63609;49.992;14.512;2023-04-02T08:53:24;97811.63;;;4.63;63.84
75039;BME280;63609;49.992;14.512;2023-04-02T08:58:41;97823.03;;;3.95;64.88
75039;BME280;63609;49.992;14.512;2023-04-02T09:04:17;97824.38;;;4.00;63.77
75039;BME280;63609;49.992;14.512;2023-04-02T09:06:47;97831.19;;;3.91;64.30
75039;BME280;63609;49.992;14.512;2023-04-02T09:09:16;97831.47;;;3.76;65.15
75039;BME280;63609;49.992;14.512;2023-04-02T09:12:00;97831.59;;;3.50;66.19
75039;BME280;63609;49.992;14.512;2023-04-02T09:14:58;97834.72;;;4.03;64.01
75039;BME280;63609;49.992;14.512;2023-04-02T09:18:13;97840.00;;;4.14;63.71
75039;BME280;63609;49.992;14.512;2023-04-02T09:21:34;97849.59;;;4.73;61.40
75039;BME280;63609;49.992;14.512;2023-04-02T09:24:03;97853.94;;;3.81;64.02
75039;BME280;63609;49.992;14.512;2023-04-02T09:26:32;97860.38;;;4.47;63.37
75039;BME280;63609;49.992;14.512;2023-04-02T09:31:42;97862.44;;;4.66;62.18
75039;BME280;63609;49.992;14.512;2023-04-02T09:34:35;97861.25;;;4.02;63.30
75039;BME280;63609;49.992;14.512;2023-04-02T09:37:17;97876.75;;;4.06;62.86
75039;BME280;63609;49.992;14.512;2023-04-02T09:39:44;97868.41;;;4.46;62.36
75039;BME280;63609;49.992;14.512;2023-04-02T09:42:44;97883.34;;;4.69;61.43
75039;BME280;63609;49.992;14.512;2023-04-02T09:45:22;97889.09;;;4.52;61.30
75039;BME280;63609;49.992;14.512;2023-04-02T09:47:51;97895.38;;;4.84;61.38
75039;BME280;63609;49.992;14.512;2023-04-02T09:50:46;97901.88;;;4.80;60.72
75039;BME280;63609;49.992;14.512;2023-04-02T09:53:27;97894.75;;;4.59;62.30
75039;BME280;63609;49.992;14.512;2023-04-02T09:58:43;97919.53;;;4.80;61.13
75039;BME280;63609;49.992;14.512;2023-04-02T10:01:27;97915.91;;;4.59;60.40
75039;BME280;63609;49.992;14.512;2023-04-02T10:03:55;97918.22;;;4.85;60.91
75039;BME280;63609;49.992;14.512;2023-04-02T10:06:27;97924.34;;;4.64;60.64
75039;BME280;63609;49.992;14.512;2023-04-02T10:09:19;97925.94;;;5.00;58.12
75039;BME280;63609;49.992;14.512;2023-04-02T10:11:49;97942.50;;;4.91;58.97
75039;BME280;63609;49.992;14.512;2023-04-02T10:14:21;97952.91;;;4.59;58.61
75039;BME280;63609;49.992;14.512;2023-04-02T10:17:04;97951.31;;;4.34;59.57
75039;BME280;63609;49.992;14.512;2023-04-02T10:19:39;97963.38;;;4.25;59.91
75039;BME280;63609;49.992;14.512;2023-04-02T10:22:18;97950.38;;;3.74;60.70
75039;BME280;63609;49.992;14.512;2023-04-02T10:24:47;97967.16;;;3.86;60.39
75039;BME280;63609;49.992;14.512;2023-04-02T10:31:02;97973.28;;;3.86;60.29
75039;BME280;63609;49.992;14.512;2023-04-02T10:33:35;97975.84;;;3.75;60.96
75039;BME280;63609;49.992;14.512;2023-04-02T10:39:01;97990.56;;;3.54;59.34
75039;BME280;63609;49.992;14.512;2023-04-02T10:47:03;97987.03;;;4.27;57.79
75039;BME280;63609;49.992;14.512;2023-04-02T10:49:46;97987.94;;;3.90;59.33
75039;BME280;63609;49.992;14.512;2023-04-02T10:52:28;98002.81;;;4.04;58.38
75039;BME280;63609;49.992;14.512;2023-04-02T10:55:01;97996.47;;;4.31;58.47
75039;BME280;63609;49.992;14.512;2023-04-02T10:57:36;98000.94;;;4.41;57.42
75039;BME280;63609;49.992;14.512;2023-04-02T11:05:40;98019.63;;;4.03;58.06
75039;BME280;63609;49.992;14.512;2023-04-02T11:11:16;98031.66;;;3.95;58.46
75039;BME280;63609;49.992;14.512;2023-04-02T11:16:31;98045.25;;;3.65;58.34
75039;BME280;63609;49.992;14.512;2023-04-02T11:32:28;98074.16;;;3.79;57.27
75039;BME280;63609;49.992;14.512;2023-04-02T11:35:01;98082.00;;;3.55;57.86
75039;BME280;63609;49.992;14.512;2023-04-02T11:42:39;98091.59;;;4.31;56.53
75039;BME280;63609;49.992;14.512;2023-04-02T11:50:34;98111.03;;;3.42;57.63
75039;BME280;63609;49.992;14.512;2023-04-02T11:53:03;98110.81;;;3.71;57.41
75039;BME280;63609;49.992;14.512;2023-04-02T11:55:36;98112.75;;;3.30;57.72
75039;BME280;63609;49.992;14.512;2023-04-02T12:09:28;98132.06;;;3.69;57.71
75039;BME280;63609;49.992;14.512;2023-04-02T12:12:14;98131.81;;;3.59;58.93
75039;BME280;63609;49.992;14.512;2023-04-02T12:14:58;98136.34;;;3.83;58.34
75039;BME280;63609;49.992;14.512;2023-04-02T12:20:20;98158.91;;;3.11;60.02
75039;BME280;63609;49.992;14.512;2023-04-02T12:22:51;98159.19;;;3.46;59.09
75039;BME280;63609;49.992;14.512;2023-04-02T12:25:27;98158.38;;;3.06;59.95
75039;BME280;63609;49.992;14.512;2023-04-02T12:28:16;98168.09;;;3.18;59.95
75039;BME280;63609;49.992;14.512;2023-04-02T12:30:47;98171.16;;;3.12;59.82
75039;BME280;63609;49.992;14.512;2023-04-02T12:35:49;98170.44;;;3.22;59.89
75039;BME280;63609;49.992;14.512;2023-04-02T12:38:27;98173.22;;;3.34;59.98
75039;BME280;63609;49.992;14.512;2023-04-02T12:41:02;98172.44;;;3.19;60.01
75039;BME280;63609;49.992;14.512;2023-04-02T12:43:34;98173.06;;;3.22;59.54
75039;BME280;63609;49.992;14.512;2023-04-02T12:46:05;98182.31;;;3.03;60.66
75039;BME280;63609;49.992;14.512;2023-04-02T12:48:34;98182.13;;;3.06;59.95
75039;BME280;63609;49.992;14.512;2023-04-02T12:51:03;98185.41;;;2.55;61.37
75039;BME280;63609;49.992;14.512;2023-04-02T12:53:39;98186.16;;;3.24;59.71
75039;BME280;63609;49.992;14.512;2023-04-02T12:56:07;98191.44;;;3.24;60.43
75039;BME280;63609;49.992;14.512;2023-04-02T12:58:59;98199.84;;;3.04;60.90
75039;BME280;63609;49.992;14.512;2023-04-02T13:01:33;98204.59;;;3.11;60.05
75039;BME280;63609;49.992;14.512;2023-04-02T13:04:16;98204.09;;;3.19;60.53
75039;BME280;63609;49.992;14.512;2023-04-02T13:06:49;98201.03;;;3.12;59.98
75039;BME280;63609;49.992;14.512;2023-04-02T13:09:35;98201.38;;;2.66;61.53
75039;BME280;63609;49.992;14.512;2023-04-02T13:12:32;98211.28;;;2.90;60.89
75039;BME280;63609;49.992;14.512;2023-04-02T13:15:42;98207.75;;;3.04;60.74
75039;BME280;63609;49.992;14.512;2023-04-02T13:18:21;98206.94;;;2.62;61.86
75039;BME280;63609;49.992;14.512;2023-04-02T13:24:36;98215.69;;;2.89;61.05
75039;BME280;63609;49.992;14.512;2023-04-02T13:27:13;98226.81;;;2.53;61.35
75039;BME280;63609;49.992;14.512;2023-04-02T13:29:45;98224.97;;;2.82;61.17
75039;BME280;63609;49.992;14.512;2023-04-02T13:32:36;98224.91;;;2.96;60.26
75039;BME280;63609;49.992;14.512;2023-04-02T13:35:25;98224.69;;;3.26;60.24
75039;BME280;63609;49.992;14.512;2023-04-02T13:38:04;98235.91;;;2.76;61.26
75039;BME280;63609;49.992;14.512;2023-04-02T13:40:32;98245.91;;;2.71;61.18
75039;BME280;63609;49.992;14.512;2023-04-02T13:43:00;98251.56;;;2.92;60.89
75039;BME280;63609;49.992;14.512;2023-04-02T13:45:37;98250.53;;;2.53;61.40
75039;BME280;63609;49.992;14.512;2023-04-02T13:48:15;98248.91;;;3.06;59.72
75039;BME280;63609;49.992;14.512;2023-04-02T13:50:51;98255.44;;;2.86;60.36
75039;BME280;63609;49.992;14.512;2023-04-02T13:53:29;98258.22;;;2.97;59.93
75039;BME280;63609;49.992;14.512;2023-04-02T13:56:00;98264.22;;;3.41;58.23
75039;BME280;63609;49.992;14.512;2023-04-02T13:58:28;98258.53;;;2.93;59.04
75039;BME280;63609;49.992;14.512;2023-04-02T14:00:56;98268.94;;;2.82;59.26
75039;BME280;63609;49.992;14.512;2023-04-02T14:03:35;98270.91;;;2.78;59.29
75039;BME280;63609;49.992;14.512;2023-04-02T14:09:04;98278.22;;;3.02;59.21
75039;BME280;63609;49.992;14.512;2023-04-02T14:17:28;98284.78;;;3.36;57.61
75039;BME280;63609;49.992;14.512;2023-04-02T14:20:20;98287.22;;;3.12;58.24
75039;BME280;63609;49.992;14.512;2023-04-02T14:28:47;98300.19;;;2.88;58.25
75039;BME280;63609;49.992;14.512;2023-04-02T14:34:49;98300.50;;;3.10;59.01
75039;BME280;63609;49.992;14.512;2023-04-02T14:38:25;98318.06;;;3.24;58.52
75039;BME280;63609;49.992;14.512;2023-04-02T14:41:55;98308.19;;;2.86;58.32
75039;BME280;63609;49.992;14.512;2023-04-02T14:52:07;98319.59;;;2.87;58.24
75039;BME280;63609;49.992;14.512;2023-04-02T14:54:53;98319.47;;;2.88;58.61
75039;BME280;63609;49.992;14.512;2023-04-02T15:01:17;98329.78;;;3.20;57.48
75039;BME280;63609;49.992;14.512;2023-04-02T15:04:03;98335.50;;;2.85;59.82
75039;BME280;63609;49.992;14.512;2023-04-02T15:06:46;98341.22;;;2.92;59.01
75039;BME280;63609;49.992;14.512;2023-04-02T15:09:36;98345.75;;;3.04;58.53
75039;BME280;63609;49.992;14.512;2023-04-02T15:12:23;98356.75;;;2.96;58.20
75039;BME280;63609;49.992;14.512;2023-04-02T15:18:21;98355.00;;;2.54;60.02
75039;BME280;63609;49.992;14.512;2023-04-02T15:28:41;98368.09;;;2.42;58.82
75039;BME280;63609;49.992;14.512;2023-04-02T15:54:12;98400.75;;;2.53;59.11
75039;BME280;63609;49.992;14.512;2023-04-02T15:56:55;98403.56;;;2.50;59.43
75039;BME280;63609;49.992;14.512;2023-04-02T16:02:50;98417.22;;;2.43;58.47
75039;BME280;63609;49.992;14.512;2023-04-02T16:11:38;98433.13;;;2.41;58.36
75039;BME280;63609;49.992;14.512;2023-04-02T16:14:15;98430.50;;;2.55;58.01
75039;BME280;63609;49.992;14.512;2023-04-02T16:16:49;98431.09;;;2.30;57.62
75039;BME280;63609;49.992;14.512;2023-04-02T16:19:31;98434.00;;;2.26;58.22
75039;BME280;63609;49.992;14.512;2023-04-02T16:22:04;98438.03;;;2.17;58.41
75039;BME280;63609;49.992;14.512;2023-04-02T16:39:03;98453.41;;;2.69;56.21
75039;BME280;63609;49.992;14.512;2023-04-02T16:48:13;98459.41;;;1.97;57.89
75039;BME280;63609;49.992;14.512;2023-04-02T16:51:15;98460.97;;;2.45;57.18
75039;BME280;63609;49.992;14.512;2023-04-02T16:54:20;98468.97;;;2.44;57.05
75039;BME280;63609;49.992;14.512;2023-04-02T16:57:29;98472.94;;;2.21;57.29
75039;BME280;63609;49.992;14.512;2023-04-02T17:06:46;98475.09;;;2.44;57.41
75039;BME280;63609;49.992;14.512;2023-04-02T17:09:32;98480.09;;;2.49;56.47
75039;BME280;63609;49.992;14.512;2023-04-02T17:12:25;98483.00;;;2.44;57.06
75039;BME280;63609;49.992;14.512;2023-04-02T17:15:06;98478.53;;;2.30;57.25
75039;BME280;63609;49.992;14.512;2023-04-02T17:17:56;98484.50;;;2.48;56.71
75039;BME280;63609;49.992;14.512;2023-04-02T17:20:25;98490.03;;;2.74;56.17
75039;BME280;63609;49.992;14.512;2023-04-02T17:22:53;98492.13;;;2.53;56.49
75039;BME280;63609;49.992;14.512;2023-04-02T17:25:29;98498.66;;;2.31;57.00
75039;BME280;63609;49.992;14.512;2023-04-02T17:28:00;98498.41;;;2.06;57.66
75039;BME280;63609;49.992;14.512;2023-04-02T17:30:59;98502.97;;;2.32;57.00
75039;BME280;63609;49.992;14.512;2023-04-02T17:33:27;98500.81;;;2.55;57.03
75039;BME280;63609;49.992;14.512;2023-04-02T17:44:58;98523.56;;;2.42;56.84
75039;BME280;63609;49.992;14.512;2023-04-02T17:50:32;98533.69;;;2.33;57.48
75039;BME280;63609;49.992;14.512;2023-04-02T17:53:10;98531.72;;;2.37;57.49
75039;BME280;63609;49.992;14.512;2023-04-02T18:01:01;98549.88;;;3.30;55.60
75039;BME280;63609;49.992;14.512;2023-04-02T18:06:38;98552.75;;;2.83;56.98
75039;BME280;63609;49.992;14.512;2023-04-02T18:09:17;98560.38;;;2.57;57.00
75039;BME280;63609;49.992;14.512;2023-04-02T18:12:21;98557.53;;;2.76;56.68
75039;BME280;63609;49.992;14.512;2023-04-02T18:17:49;98567.91;;;2.93;56.68
75039;BME280;63609;49.992;14.512;2023-04-02T18:25:48;98573.72;;;2.70;57.50
75039;BME280;63609;49.992;14.512;2023-04-02T18:31:31;98592.25;;;2.39;58.38
75039;BME280;63609;49.992;14.512;2023-04-02T18:34:09;98580.50;;;2.44;58.23
75039;BME280;63609;49.992;14.512;2023-04-02T18:36:54;98591.38;;;2.38;59.02
75039;BME280;63609;49.992;14.512;2023-04-02T18:39:35;98602.25;;;2.48;58.32
75039;BME280;63609;49.992;14.512;2023-04-02T18:47:38;98597.84;;;2.78;57.29
75039;BME280;63609;49.992;14.512;2023-04-02T18:50:41;98608.63;;;2.44;57.91
75039;BME280;63609;49.992;14.512;2023-04-02T18:53:16;98617.16;;;2.63;58.22
75039;BME280;63609;49.992;14.512;2023-04-02T18:55:49;98617.56;;;2.10;59.30
75039;BME280;63609;49.992;14.512;2023-04-02T18:58:32;98625.34;;;2.58;58.52
75039;BME280;63609;49.992;14.512;2023-04-02T19:01:05;98622.78;;;2.73;58.09
75039;BME280;63609;49.992;14.512;2023-04-02T19:03:38;98628.00;;;2.88;57.02
75039;BME280;63609;49.992;14.512;2023-04-02T19:06:20;98627.41;;;2.53;58.52
75039;BME280;63609;49.992;14.512;2023-04-02T19:09:14;98629.78;;;2.26;58.57